sensor_id;sensor_type;location;lat;lon;timestamp;P1;durP1;ratioP1;P2;durP2;ratioP2
74935;SDS011;63501;55.570;37.488;2023-05-10T00:00:12;10.13;;;4.18;;
74935;SDS011;63501;55.570;37.488;2023-05-10T00:02:40;6.43;;;3.50;;
74935;SDS011;63501;55.570;37.488;2023-05-10T00:05:07;8.38;;;3.95;;
74935;SDS011;63501;55.570;37.488;2023-05-10T00:07:34;8.15;;;3.63;;
74935;SDS011;63501;55.570;37.488;2023-05-10T00:10:01;6.90;;;3.47;;
74935;SDS011;63501;55.570;37.488;2023-05-10T00:12:29;7.88;;;3.75;;
74935;SDS011;63501;55.570;37.488;2023-05-10T00:14:56;9.20;;;3.50;;
74935;SDS011;63501;55.570;37.488;2023-05-10T00:17:24;7.80;;;4.03;;
74935;SDS011;63501;55.570;37.488;2023-05-10T00:19:51;6.35;;;3.17;;
74935;SDS011;63501;55.570;37.488;2023-05-10T00:22:18;9.63;;;4.25;;
74935;SDS011;63501;55.570;37.488;2023-05-10T00:24:45;9.05;;;3.90;;
74935;SDS011;63501;55.570;37.488;2023-05-10T00:27:12;9.10;;;3.97;;
74935;SDS011;63501;55.570;37.488;2023-05-10T00:29:39;8.65;;;3.55;;
74935;SDS011;63501;55.570;37.488;2023-05-10T00:32:06;7.03;;;3.45;;
74935;SDS011;63501;55.570;37.488;2023-05-10T00:34:35;8.55;;;3.15;;
74935;SDS011;63501;55.570;37.488;2023-05-10T00:37:02;11.13;;;3.47;;
74935;SDS011;63501;55.570;37.488;2023-05-10T00:39:29;9.00;;;3.42;;
74935;SDS011;63501;55.570;37.488;2023-05-10T00:41:56;4.47;;;3.13;;
74935;SDS011;63501;55.570;37.488;2023-05-10T00:44:23;9.13;;;3.55;;
74935;SDS011;63501;55.570;37.488;2023-05-10T00:46:50;9.00;;;3.40;;
74935;SDS011;63501;55.570;37.488;2023-05-10T00:49:17;7.60;;;3.42;;
74935;SDS011;63501;55.570;37.488;2023-05-10T00:51:46;7.88;;;3.75;;
74935;SDS011;63501;55.570;37.488;2023-05-10T00:54:14;8.02;;;4.20;;
74935;SDS011;63501;55.570;37.488;2023-05-10T00:56:41;8.15;;;4.10;;
74935;SDS011;63501;55.570;37.488;2023-05-10T00:59:13;9.95;;;4.60;;
74935;SDS011;63501;55.570;37.488;2023-05-10T01:01:41;6.88;;;3.78;;
74935;SDS011;63501;55.570;37.488;2023-05-10T01:04:08;11.32;;;4.15;;
74935;SDS011;63501;55.570;37.488;2023-05-10T01:06:36;11.15;;;3.50;;
74935;SDS011;63501;55.570;37.488;2023-05-10T01:09:05;7.63;;;3.95;;
74935;SDS011;63501;55.570;37.488;2023-05-10T01:11:32;6.72;;;3.65;;
74935;SDS011;63501;55.570;37.488;2023-05-10T01:14:00;8.10;;;3.50;;
74935;SDS011;63501;55.570;37.488;2023-05-10T01:16:28;7.20;;;3.65;;
74935;SDS011;63501;55.570;37.488;2023-05-10T01:18:58;7.63;;;3.55;;
74935;SDS011;63501;55.570;37.488;2023-05-10T01:21:27;8.07;;;3.53;;
74935;SDS011;63501;55.570;37.488;2023-05-10T01:27:10;8.23;;;3.47;;
74935;SDS011;63501;55.570;37.488;2023-05-10T01:29:55;9.98;;;4.72;;
74935;SDS011;63501;55.570;37.488;2023-05-10T01:32:47;9.23;;;3.92;;
74935;SDS011;63501;55.570;37.488;2023-05-10T01:35:23;9.32;;;3.70;;
74935;SDS011;63501;55.570;37.488;2023-05-10T01:37:59;10.82;;;3.90;;
74935;SDS011;63501;55.570;37.488;2023-05-10T01:40:35;8.15;;;4.28;;
74935;SDS011;63501;55.570;37.488;2023-05-10T01:43:08;7.70;;;4.30;;
74935;SDS011;63501;55.570;37.488;2023-05-10T01:45:45;10.30;;;4.80;;
74935;SDS011;63501;55.570;37.488;2023-05-10T01:48:18;9.60;;;4.13;;
74935;SDS011;63501;55.570;37.488;2023-05-10T01:50:47;12.35;;;4.30;;
74935;SDS011;63501;55.570;37.488;2023-05-10T01:53:17;9.57;;;4.30;;
74935;SDS011;63501;55.570;37.488;2023-05-10T01:55:47;8.63;;;4.15;;
74935;SDS011;63501;55.570;37.488;2023-05-10T01:58:19;9.35;;;4.40;;
74935;SDS011;63501;55.570;37.488;2023-05-10T02:00:49;13.82;;;4.93;;
74935;SDS011;63501;55.570;37.488;2023-05-10T02:03:20;8.23;;;4.00;;
74935;SDS011;63501;55.570;37.488;2023-05-10T02:05:49;8.68;;;4.38;;
74935;SDS011;63501;55.570;37.488;2023-05-10T02:08:18;8.32;;;4.20;;
74935;SDS011;63501;55.570;37.488;2023-05-10T02:10:47;9.80;;;4.60;;
74935;SDS011;63501;55.570;37.488;2023-05-10T02:13:16;9.10;;;4.25;;
74935;SDS011;63501;55.570;37.488;2023-05-10T02:15:46;7.50;;;4.20;;
74935;SDS011;63501;55.570;37.488;2023-05-10T02:18:15;10.38;;;4.30;;
74935;SDS011;63501;55.570;37.488;2023-05-10T02:20:44;9.98;;;4.25;;
74935;SDS011;63501;55.570;37.488;2023-05-10T02:23:13;8.13;;;4.15;;
74935;SDS011;63501;55.570;37.488;2023-05-10T02:28:09;10.85;;;4.43;;
74935;SDS011;63501;55.570;37.488;2023-05-10T02:30:38;10.10;;;4.25;;
74935;SDS011;63501;55.570;37.488;2023-05-10T02:33:06;9.15;;;4.25;;
74935;SDS011;63501;55.570;37.488;2023-05-10T02:38:02;9.35;;;4.28;;
74935;SDS011;63501;55.570;37.488;2023-05-10T02:40:32;10.35;;;4.25;;
74935;SDS011;63501;55.570;37.488;2023-05-10T02:43:01;10.55;;;4.57;;
74935;SDS011;63501;55.570;37.488;2023-05-10T02:47:56;11.02;;;4.82;;
74935;SDS011;63501;55.570;37.488;2023-05-10T02:50:25;12.43;;;4.88;;
74935;SDS011;63501;55.570;37.488;2023-05-10T02:52:55;10.18;;;4.70;;
74935;SDS011;63501;55.570;37.488;2023-05-10T02:55:33;11.50;;;4.50;;
74935;SDS011;63501;55.570;37.488;2023-05-10T02:58:04;9.18;;;4.95;;
74935;SDS011;63501;55.570;37.488;2023-05-10T03:00:31;11.85;;;5.38;;
74935;SDS011;63501;55.570;37.488;2023-05-10T03:02:58;12.57;;;4.80;;
74935;SDS011;63501;55.570;37.488;2023-05-10T03:05:26;12.93;;;5.13;;
74935;SDS011;63501;55.570;37.488;2023-05-10T03:07:53;10.65;;;4.70;;
74935;SDS011;63501;55.570;37.488;2023-05-10T03:10:21;12.27;;;5.95;;
74935;SDS011;63501;55.570;37.488;2023-05-10T03:13:05;13.10;;;5.93;;
74935;SDS011;63501;55.570;37.488;2023-05-10T03:15:42;12.90;;;5.57;;
74935;SDS011;63501;55.570;37.488;2023-05-10T03:18:15;14.10;;;6.07;;
74935;SDS011;63501;55.570;37.488;2023-05-10T03:20:46;12.95;;;5.07;;
74935;SDS011;63501;55.570;37.488;2023-05-10T03:23:19;15.93;;;5.97;;
74935;SDS011;63501;55.570;37.488;2023-05-10T03:25:49;15.93;;;5.82;;
74935;SDS011;63501;55.570;37.488;2023-05-10T03:28:18;15.05;;;5.75;;
74935;SDS011;63501;55.570;37.488;2023-05-10T03:30:47;15.05;;;5.25;;
74935;SDS011;63501;55.570;37.488;2023-05-10T03:33:15;12.25;;;5.70;;
74935;SDS011;63501;55.570;37.488;2023-05-10T03:35:43;15.35;;;5.47;;
74935;SDS011;63501;55.570;37.488;2023-05-10T03:40:37;13.68;;;4.72;;
74935;SDS011;63501;55.570;37.488;2023-05-10T03:43:05;15.15;;;4.85;;
74935;SDS011;63501;55.570;37.488;2023-05-10T03:45:33;12.60;;;5.55;;
74935;SDS011;63501;55.570;37.488;2023-05-10T03:48:00;13.18;;;5.47;;
74935;SDS011;63501;55.570;37.488;2023-05-10T03:50:27;20.50;;;5.40;;
74935;SDS011;63501;55.570;37.488;2023-05-10T03:52:54;13.48;;;5.60;;
74935;SDS011;63501;55.570;37.488;2023-05-10T03:55:22;11.68;;;5.82;;
74935;SDS011;63501;55.570;37.488;2023-05-10T03:57:49;12.35;;;5.88;;
74935;SDS011;63501;55.570;37.488;2023-05-10T04:00:16;18.15;;;6.57;;
74935;SDS011;63501;55.570;37.488;2023-05-10T04:02:45;17.67;;;6.03;;
74935;SDS011;63501;55.570;37.488;2023-05-10T04:05:12;18.35;;;6.82;;
74935;SDS011;63501;55.570;37.488;2023-05-10T04:07:39;19.80;;;5.78;;
74935;SDS011;63501;55.570;37.488;2023-05-10T04:10:06;12.75;;;5.13;;
74935;SDS011;63501;55.570;37.488;2023-05-10T04:12:34;14.90;;;6.10;;
74935;SDS011;63501;55.570;37.488;2023-05-10T04:15:01;12.77;;;5.18;;
74935;SDS011;63501;55.570;37.488;2023-05-10T04:19:57;9.35;;;4.40;;
74935;SDS011;63501;55.570;37.488;2023-05-10T04:22:26;10.88;;;4.00;;
74935;SDS011;63501;55.570;37.488;2023-05-10T04:24:54;11.43;;;4.75;;
74935;SDS011;63501;55.570;37.488;2023-05-10T04:27:21;9.73;;;4.57;;
74935;SDS011;63501;55.570;37.488;2023-05-10T04:29:48;11.93;;;4.68;;
74935;SDS011;63501;55.570;37.488;2023-05-10T04:32:15;8.93;;;3.67;;
74935;SDS011;63501;55.570;37.488;2023-05-10T04:34:42;11.98;;;3.83;;
74935;SDS011;63501;55.570;37.488;2023-05-10T04:37:11;8.32;;;3.80;;
74935;SDS011;63501;55.570;37.488;2023-05-10T04:39:38;10.05;;;4.35;;
74935;SDS011;63501;55.570;37.488;2023-05-10T04:42:05;9.55;;;4.50;;
74935;SDS011;63501;55.570;37.488;2023-05-10T04:44:32;8.13;;;3.80;;
74935;SDS011;63501;55.570;37.488;2023-05-10T04:46:59;9.77;;;3.53;;
74935;SDS011;63501;55.570;37.488;2023-05-10T04:49:27;9.57;;;3.38;;
74935;SDS011;63501;55.570;37.488;2023-05-10T04:51:54;7.22;;;3.70;;
74935;SDS011;63501;55.570;37.488;2023-05-10T04:54:23;8.82;;;3.35;;
74935;SDS011;63501;55.570;37.488;2023-05-10T04:56:50;5.97;;;3.50;;
74935;SDS011;63501;55.570;37.488;2023-05-10T04:59:17;14.35;;;3.70;;
74935;SDS011;63501;55.570;37.488;2023-05-10T05:01:44;8.32;;;3.47;;
74935;SDS011;63501;55.570;37.488;2023-05-10T05:04:11;8.15;;;3.30;;
74935;SDS011;63501;55.570;37.488;2023-05-10T05:09:06;9.85;;;3.80;;
74935;SDS011;63501;55.570;37.488;2023-05-10T05:11:35;7.95;;;3.75;;
74935;SDS011;63501;55.570;37.488;2023-05-10T05:14:02;12.13;;;4.53;;
74935;SDS011;63501;55.570;37.488;2023-05-10T05:16:30;8.35;;;4.60;;
74935;SDS011;63501;55.570;37.488;2023-05-10T05:18:57;11.43;;;3.90;;
74935;SDS011;63501;55.570;37.488;2023-05-10T05:21:24;7.78;;;3.78;;
74935;SDS011;63501;55.570;37.488;2023-05-10T05:23:52;9.63;;;3.30;;
74935;SDS011;63501;55.570;37.488;2023-05-10T05:26:19;9.88;;;3.50;;
74935;SDS011;63501;55.570;37.488;2023-05-10T05:28:47;6.22;;;3.00;;
74935;SDS011;63501;55.570;37.488;2023-05-10T05:31:17;6.63;;;3.25;;
74935;SDS011;63501;55.570;37.488;2023-05-10T05:33:44;5.38;;;3.28;;
74935;SDS011;63501;55.570;37.488;2023-05-10T05:36:11;12.43;;;3.00;;
74935;SDS011;63501;55.570;37.488;2023-05-10T05:38:38;7.22;;;2.53;;
74935;SDS011;63501;55.570;37.488;2023-05-10T05:41:05;9.80;;;2.78;;
74935;SDS011;63501;55.570;37.488;2023-05-10T05:43:32;7.78;;;2.70;;
74935;SDS011;63501;55.570;37.488;2023-05-10T05:46:01;7.18;;;2.83;;
74935;SDS011;63501;55.570;37.488;2023-05-10T05:48:29;5.72;;;2.72;;
74935;SDS011;63501;55.570;37.488;2023-05-10T05:50:56;8.07;;;2.70;;
74935;SDS011;63501;55.570;37.488;2023-05-10T05:53:23;8.63;;;2.60;;
74935;SDS011;63501;55.570;37.488;2023-05-10T05:55:51;7.45;;;2.65;;
74935;SDS011;63501;55.570;37.488;2023-05-10T05:58:19;6.10;;;2.50;;
74935;SDS011;63501;55.570;37.488;2023-05-10T06:00:46;6.13;;;1.98;;
74935;SDS011;63501;55.570;37.488;2023-05-10T06:03:15;5.53;;;2.10;;
74935;SDS011;63501;55.570;37.488;2023-05-10T06:05:42;8.88;;;1.95;;
74935;SDS011;63501;55.570;37.488;2023-05-10T06:08:09;4.63;;;1.75;;
74935;SDS011;63501;55.570;37.488;2023-05-10T06:10:36;5.93;;;1.85;;
74935;SDS011;63501;55.570;37.488;2023-05-10T06:13:03;2.60;;;1.40;;
74935;SDS011;63501;55.570;37.488;2023-05-10T06:15:30;4.88;;;1.42;;
74935;SDS011;63501;55.570;37.488;2023-05-10T06:17:58;2.22;;;1.20;;
74935;SDS011;63501;55.570;37.488;2023-05-10T06:20:26;2.20;;;1.30;;
74935;SDS011;63501;55.570;37.488;2023-05-10T06:22:53;3.65;;;1.48;;
74935;SDS011;63501;55.570;37.488;2023-05-10T06:25:20;3.45;;;1.20;;
74935;SDS011;63501;55.570;37.488;2023-05-10T06:27:47;2.33;;;1.30;;
74935;SDS011;63501;55.570;37.488;2023-05-10T06:30:14;6.03;;;1.63;;
74935;SDS011;63501;55.570;37.488;2023-05-10T06:32:41;2.67;;;1.50;;
74935;SDS011;63501;55.570;37.488;2023-05-10T06:35:10;2.28;;;1.35;;
74935;SDS011;63501;55.570;37.488;2023-05-10T06:37:39;4.18;;;1.50;;
74935;SDS011;63501;55.570;37.488;2023-05-10T06:40:06;1.85;;;1.40;;
74935;SDS011;63501;55.570;37.488;2023-05-10T06:42:34;3.75;;;1.60;;
74935;SDS011;63501;55.570;37.488;2023-05-10T06:45:01;4.70;;;2.50;;
74935;SDS011;63501;55.570;37.488;2023-05-10T06:47:29;2.03;;;1.30;;
74935;SDS011;63501;55.570;37.488;2023-05-10T06:49:56;8.32;;;1.50;;
74935;SDS011;63501;55.570;37.488;2023-05-10T06:52:23;2.63;;;1.25;;
74935;SDS011;63501;55.570;37.488;2023-05-10T06:54:52;3.08;;;1.23;;
74935;SDS011;63501;55.570;37.488;2023-05-10T06:57:19;3.85;;;1.38;;
74935;SDS011;63501;55.570;37.488;2023-05-10T06:59:46;6.90;;;1.30;;
74935;SDS011;63501;55.570;37.488;2023-05-10T07:02:13;3.58;;;1.40;;
74935;SDS011;63501;55.570;37.488;2023-05-10T07:04:41;1.77;;;1.10;;
74935;SDS011;63501;55.570;37.488;2023-05-10T07:07:08;3.28;;;0.90;;
74935;SDS011;63501;55.570;37.488;2023-05-10T07:09:35;3.17;;;1.38;;
74935;SDS011;63501;55.570;37.488;2023-05-10T07:12:04;3.00;;;1.10;;
74935;SDS011;63501;55.570;37.488;2023-05-10T07:14:31;1.10;;;0.82;;
74935;SDS011;63501;55.570;37.488;2023-05-10T07:16:58;4.05;;;1.00;;
74935;SDS011;63501;55.570;37.488;2023-05-10T07:19:25;2.78;;;1.02;;
74935;SDS011;63501;55.570;37.488;2023-05-10T07:21:52;1.95;;;1.05;;
74935;SDS011;63501;55.570;37.488;2023-05-10T07:24:19;4.15;;;1.25;;
74935;SDS011;63501;55.570;37.488;2023-05-10T07:26:49;2.50;;;1.10;;
74935;SDS011;63501;55.570;37.488;2023-05-10T07:29:17;2.95;;;1.00;;
74935;SDS011;63501;55.570;37.488;2023-05-10T07:31:44;3.47;;;1.35;;
74935;SDS011;63501;55.570;37.488;2023-05-10T07:34:14;2.25;;;1.30;;
74935;SDS011;63501;55.570;37.488;2023-05-10T07:36:41;1.65;;;1.00;;
74935;SDS011;63501;55.570;37.488;2023-05-10T07:39:08;5.32;;;1.38;;
74935;SDS011;63501;55.570;37.488;2023-05-10T07:41:36;1.55;;;1.10;;
74935;SDS011;63501;55.570;37.488;2023-05-10T07:44:06;1.27;;;0.93;;
74935;SDS011;63501;55.570;37.488;2023-05-10T07:46:38;2.38;;;1.27;;
74935;SDS011;63501;55.570;37.488;2023-05-10T07:49:05;1.42;;;1.00;;
74935;SDS011;63501;55.570;37.488;2023-05-10T07:51:32;2.25;;;1.17;;
74935;SDS011;63501;55.570;37.488;2023-05-10T07:54:03;2.00;;;1.10;;
74935;SDS011;63501;55.570;37.488;2023-05-10T07:56:31;1.92;;;1.40;;
74935;SDS011;63501;55.570;37.488;2023-05-10T07:58:59;3.95;;;1.65;;
74935;SDS011;63501;55.570;37.488;2023-05-10T08:01:29;1.80;;;1.00;;
74935;SDS011;63501;55.570;37.488;2023-05-10T08:03:59;5.32;;;1.45;;
74935;SDS011;63501;55.570;37.488;2023-05-10T08:06:26;2.67;;;1.30;;
74935;SDS011;63501;55.570;37.488;2023-05-10T08:08:55;5.43;;;1.88;;
74935;SDS011;63501;55.570;37.488;2023-05-10T08:13:52;4.55;;;1.30;;
74935;SDS011;63501;55.570;37.488;2023-05-10T08:16:20;3.67;;;1.40;;
74935;SDS011;63501;55.570;37.488;2023-05-10T08:18:50;2.08;;;1.20;;
74935;SDS011;63501;55.570;37.488;2023-05-10T08:21:18;2.25;;;1.23;;
74935;SDS011;63501;55.570;37.488;2023-05-10T08:23:47;2.47;;;1.27;;
74935;SDS011;63501;55.570;37.488;2023-05-10T08:26:14;2.90;;;1.60;;
74935;SDS011;63501;55.570;37.488;2023-05-10T08:28:41;2.97;;;1.33;;
74935;SDS011;63501;55.570;37.488;2023-05-10T08:31:08;1.92;;;1.35;;
74935;SDS011;63501;55.570;37.488;2023-05-10T08:33:35;2.28;;;1.27;;
74935;SDS011;63501;55.570;37.488;2023-05-10T08:36:02;4.03;;;1.75;;
74935;SDS011;63501;55.570;37.488;2023-05-10T08:38:31;3.80;;;1.40;;
74935;SDS011;63501;55.570;37.488;2023-05-10T08:40:58;2.97;;;1.20;;
74935;SDS011;63501;55.570;37.488;2023-05-10T08:43:27;2.08;;;1.00;;
74935;SDS011;63501;55.570;37.488;2023-05-10T08:45:55;3.38;;;1.13;;
74935;SDS011;63501;55.570;37.488;2023-05-10T08:48:23;3.30;;;1.73;;
74935;SDS011;63501;55.570;37.488;2023-05-10T08:50:52;2.30;;;0.95;;
74935;SDS011;63501;55.570;37.488;2023-05-10T08:53:20;4.50;;;1.30;;
74935;SDS011;63501;55.570;37.488;2023-05-10T08:55:53;2.70;;;1.20;;
74935;SDS011;63501;55.570;37.488;2023-05-10T08:58:20;2.55;;;1.25;;
74935;SDS011;63501;55.570;37.488;2023-05-10T09:00:48;2.30;;;1.00;;
74935;SDS011;63501;55.570;37.488;2023-05-10T09:03:17;3.65;;;1.60;;
74935;SDS011;63501;55.570;37.488;2023-05-10T09:05:44;2.00;;;1.50;;
74935;SDS011;63501;55.570;37.488;2023-05-10T09:08:12;1.95;;;1.08;;
74935;SDS011;63501;55.570;37.488;2023-05-10T09:10:41;2.33;;;1.20;;
74935;SDS011;63501;55.570;37.488;2023-05-10T09:13:11;3.95;;;1.50;;
74935;SDS011;63501;55.570;37.488;2023-05-10T09:15:39;5.32;;;1.38;;
74935;SDS011;63501;55.570;37.488;2023-05-10T09:18:06;1.90;;;1.13;;
74935;SDS011;63501;55.570;37.488;2023-05-10T09:20:33;1.52;;;1.10;;
74935;SDS011;63501;55.570;37.488;2023-05-10T09:23:00;1.38;;;1.10;;
74935;SDS011;63501;55.570;37.488;2023-05-10T09:25:27;2.25;;;1.00;;
74935;SDS011;63501;55.570;37.488;2023-05-10T09:27:54;4.15;;;1.40;;
74935;SDS011;63501;55.570;37.488;2023-05-10T09:30:26;7.15;;;1.48;;
74935;SDS011;63501;55.570;37.488;2023-05-10T09:32:54;2.78;;;1.20;;
74935;SDS011;63501;55.570;37.488;2023-05-10T09:35:23;2.08;;;1.08;;
74935;SDS011;63501;55.570;37.488;2023-05-10T09:37:52;1.55;;;1.30;;
74935;SDS011;63501;55.570;37.488;2023-05-10T09:40:20;2.85;;;1.08;;
74935;SDS011;63501;55.570;37.488;2023-05-10T09:42:51;6.82;;;1.95;;
74935;SDS011;63501;55.570;37.488;2023-05-10T09:45:20;5.55;;;1.10;;
74935;SDS011;63501;55.570;37.488;2023-05-10T09:47:49;3.17;;;1.23;;
74935;SDS011;63501;55.570;37.488;2023-05-10T09:50:16;5.75;;;1.30;;
74935;SDS011;63501;55.570;37.488;2023-05-10T09:52:46;2.42;;;1.20;;
74935;SDS011;63501;55.570;37.488;2023-05-10T09:55:15;1.80;;;1.25;;
74935;SDS011;63501;55.570;37.488;2023-05-10T09:57:45;1.80;;;1.30;;
74935;SDS011;63501;55.570;37.488;2023-05-10T10:02:45;3.72;;;2.13;;
74935;SDS011;63501;55.570;37.488;2023-05-10T10:05:14;2.25;;;1.25;;
74935;SDS011;63501;55.570;37.488;2023-05-10T10:07:41;1.90;;;1.30;;
74935;SDS011;63501;55.570;37.488;2023-05-10T10:12:38;2.00;;;1.30;;
74935;SDS011;63501;55.570;37.488;2023-05-10T10:15:07;2.92;;;1.25;;
74935;SDS011;63501;55.570;37.488;2023-05-10T10:17:35;2.42;;;1.27;;
74935;SDS011;63501;55.570;37.488;2023-05-10T10:20:04;2.30;;;1.17;;
74935;SDS011;63501;55.570;37.488;2023-05-10T10:22:34;2.55;;;1.20;;
74935;SDS011;63501;55.570;37.488;2023-05-10T10:25:01;1.77;;;1.23;;
74935;SDS011;63501;55.570;37.488;2023-05-10T10:27:33;3.28;;;1.45;;
74935;SDS011;63501;55.570;37.488;2023-05-10T10:30:12;4.65;;;1.70;;
74935;SDS011;63501;55.570;37.488;2023-05-10T10:32:54;1.73;;;0.95;;
74935;SDS011;63501;55.570;37.488;2023-05-10T10:35:39;3.28;;;1.30;;
74935;SDS011;63501;55.570;37.488;2023-05-10T10:40:35;2.72;;;1.20;;
74935;SDS011;63501;55.570;37.488;2023-05-10T10:48:37;2.60;;;1.30;;
74935;SDS011;63501;55.570;37.488;2023-05-10T10:51:05;2.13;;;1.10;;
74935;SDS011;63501;55.570;37.488;2023-05-10T10:53:33;4.63;;;1.38;;
74935;SDS011;63501;55.570;37.488;2023-05-10T10:56:07;1.85;;;1.30;;
74935;SDS011;63501;55.570;37.488;2023-05-10T10:58:35;3.10;;;1.23;;
74935;SDS011;63501;55.570;37.488;2023-05-10T11:01:13;8.82;;;1.70;;
74935;SDS011;63501;55.570;37.488;2023-05-10T11:06:44;4.40;;;1.50;;
74935;SDS011;63501;55.570;37.488;2023-05-10T11:09:12;3.38;;;1.40;;
74935;SDS011;63501;55.570;37.488;2023-05-10T11:11:50;6.57;;;2.00;;
74935;SDS011;63501;55.570;37.488;2023-05-10T11:14:20;4.53;;;2.20;;
74935;SDS011;63501;55.570;37.488;2023-05-10T11:16:48;5.00;;;2.40;;
74935;SDS011;63501;55.570;37.488;2023-05-10T11:19:16;4.47;;;2.15;;
74935;SDS011;63501;55.570;37.488;2023-05-10T11:21:44;2.45;;;1.70;;
74935;SDS011;63501;55.570;37.488;2023-05-10T11:24:14;6.03;;;1.98;;
74935;SDS011;63501;55.570;37.488;2023-05-10T11:26:42;4.85;;;1.65;;
74935;SDS011;63501;55.570;37.488;2023-05-10T11:29:09;6.25;;;3.08;;
74935;SDS011;63501;55.570;37.488;2023-05-10T11:31:41;2.47;;;1.48;;
74935;SDS011;63501;55.570;37.488;2023-05-10T11:34:10;3.45;;;1.95;;
74935;SDS011;63501;55.570;37.488;2023-05-10T11:36:37;6.30;;;2.80;;
74935;SDS011;63501;55.570;37.488;2023-05-10T11:39:05;5.00;;;1.95;;
74935;SDS011;63501;55.570;37.488;2023-05-10T11:41:34;6.38;;;2.08;;
74935;SDS011;63501;55.570;37.488;2023-05-10T11:44:01;4.28;;;1.52;;
74935;SDS011;63501;55.570;37.488;2023-05-10T11:46:28;3.35;;;1.65;;
74935;SDS011;63501;55.570;37.488;2023-05-10T11:48:57;4.20;;;1.83;;
74935;SDS011;63501;55.570;37.488;2023-05-10T11:51:29;5.85;;;2.13;;
74935;SDS011;63501;55.570;37.488;2023-05-10T11:53:59;3.50;;;1.52;;
74935;SDS011;63501;55.570;37.488;2023-05-10T11:56:26;3.40;;;1.77;;
74935;SDS011;63501;55.570;37.488;2023-05-10T11:58:55;4.72;;;1.85;;
74935;SDS011;63501;55.570;37.488;2023-05-10T12:01:23;4.05;;;1.80;;
74935;SDS011;63501;55.570;37.488;2023-05-10T12:03:55;3.50;;;1.60;;
74935;SDS011;63501;55.570;37.488;2023-05-10T12:08:53;5.68;;;1.80;;
74935;SDS011;63501;55.570;37.488;2023-05-10T12:11:20;4.20;;;2.17;;
74935;SDS011;63501;55.570;37.488;2023-05-10T12:13:50;2.75;;;1.80;;
74935;SDS011;63501;55.570;37.488;2023-05-10T12:18:47;3.35;;;1.60;;
74935;SDS011;63501;55.570;37.488;2023-05-10T12:21:16;2.95;;;1.92;;
74935;SDS011;63501;55.570;37.488;2023-05-10T12:23:44;2.35;;;1.58;;
74935;SDS011;63501;55.570;37.488;2023-05-10T12:26:12;4.38;;;2.05;;
74935;SDS011;63501;55.570;37.488;2023-05-10T12:28:40;5.95;;;2.05;;
74935;SDS011;63501;55.570;37.488;2023-05-10T12:31:07;3.97;;;2.00;;
74935;SDS011;63501;55.570;37.488;2023-05-10T12:33:37;4.32;;;1.88;;
74935;SDS011;63501;55.570;37.488;2023-05-10T12:36:07;6.38;;;2.08;;
74935;SDS011;63501;55.570;37.488;2023-05-10T12:38:35;5.20;;;2.38;;
74935;SDS011;63501;55.570;37.488;2023-05-10T12:41:03;5.10;;;1.85;;
74935;SDS011;63501;55.570;37.488;2023-05-10T12:43:31;5.65;;;1.77;;
74935;SDS011;63501;55.570;37.488;2023-05-10T12:46:03;4.57;;;1.85;;
74935;SDS011;63501;55.570;37.488;2023-05-10T12:48:31;3.38;;;1.85;;
74935;SDS011;63501;55.570;37.488;2023-05-10T12:51:00;4.88;;;1.63;;
74935;SDS011;63501;55.570;37.488;2023-05-10T12:53:28;6.85;;;1.90;;
74935;SDS011;63501;55.570;37.488;2023-05-10T12:55:55;4.18;;;1.77;;
74935;SDS011;63501;55.570;37.488;2023-05-10T12:58:22;2.58;;;1.83;;
74935;SDS011;63501;55.570;37.488;2023-05-10T13:00:50;3.08;;;1.80;;
74935;SDS011;63501;55.570;37.488;2023-05-10T13:03:18;4.72;;;2.30;;
74935;SDS011;63501;55.570;37.488;2023-05-10T13:05:45;6.65;;;1.90;;
74935;SDS011;63501;55.570;37.488;2023-05-10T13:08:13;4.47;;;1.70;;
74935;SDS011;63501;55.570;37.488;2023-05-10T13:10:40;5.00;;;2.03;;
74935;SDS011;63501;55.570;37.488;2023-05-10T13:13:08;5.10;;;2.03;;
74935;SDS011;63501;55.570;37.488;2023-05-10T13:15:35;3.42;;;1.92;;
74935;SDS011;63501;55.570;37.488;2023-05-10T13:18:02;3.05;;;1.77;;
74935;SDS011;63501;55.570;37.488;2023-05-10T13:20:29;4.53;;;1.92;;
74935;SDS011;63501;55.570;37.488;2023-05-10T13:22:56;2.35;;;1.70;;
74935;SDS011;63501;55.570;37.488;2023-05-10T13:25:24;6.10;;;2.13;;
74935;SDS011;63501;55.570;37.488;2023-05-10T13:27:52;4.47;;;1.60;;
74935;SDS011;63501;55.570;37.488;2023-05-10T13:30:19;4.35;;;1.90;;
74935;SDS011;63501;55.570;37.488;2023-05-10T13:32:46;5.03;;;1.65;;
74935;SDS011;63501;55.570;37.488;2023-05-10T13:35:13;3.22;;;1.48;;
74935;SDS011;63501;55.570;37.488;2023-05-10T13:37:40;4.15;;;1.45;;
74935;SDS011;63501;55.570;37.488;2023-05-10T13:40:08;6.30;;;1.75;;
74935;SDS011;63501;55.570;37.488;2023-05-10T13:45:07;1.60;;;1.30;;
74935;SDS011;63501;55.570;37.488;2023-05-10T13:47:34;3.45;;;1.50;;
74935;SDS011;63501;55.570;37.488;2023-05-10T13:50:01;3.50;;;1.55;;
74935;SDS011;63501;55.570;37.488;2023-05-10T13:52:30;5.38;;;1.70;;
74935;SDS011;63501;55.570;37.488;2023-05-10T13:54:57;2.45;;;1.33;;
74935;SDS011;63501;55.570;37.488;2023-05-10T13:57:24;9.32;;;1.70;;
74935;SDS011;63501;55.570;37.488;2023-05-10T13:59:52;3.05;;;1.70;;
74935;SDS011;63501;55.570;37.488;2023-05-10T14:02:19;3.50;;;1.55;;
74935;SDS011;63501;55.570;37.488;2023-05-10T14:04:46;5.72;;;2.53;;
74935;SDS011;63501;55.570;37.488;2023-05-10T14:07:13;3.25;;;1.55;;
74935;SDS011;63501;55.570;37.488;2023-05-10T14:09:40;3.38;;;1.95;;
74935;SDS011;63501;55.570;37.488;2023-05-10T14:12:07;1.98;;;1.73;;
74935;SDS011;63501;55.570;37.488;2023-05-10T14:14:37;3.45;;;1.60;;
74935;SDS011;63501;55.570;37.488;2023-05-10T14:17:05;4.15;;;1.67;;
74935;SDS011;63501;55.570;37.488;2023-05-10T14:19:32;5.07;;;1.52;;
74935;SDS011;63501;55.570;37.488;2023-05-10T14:21:59;3.53;;;1.63;;
74935;SDS011;63501;55.570;37.488;2023-05-10T14:24:27;4.32;;;1.67;;
74935;SDS011;63501;55.570;37.488;2023-05-10T14:26:54;5.53;;;1.80;;
74935;SDS011;63501;55.570;37.488;2023-05-10T14:29:21;3.42;;;1.48;;
74935;SDS011;63501;55.570;37.488;2023-05-10T14:31:49;4.35;;;1.65;;
74935;SDS011;63501;55.570;37.488;2023-05-10T14:34:17;4.00;;;1.80;;
74935;SDS011;63501;55.570;37.488;2023-05-10T14:36:45;4.13;;;1.70;;
74935;SDS011;63501;55.570;37.488;2023-05-10T14:39:12;3.60;;;1.40;;
74935;SDS011;63501;55.570;37.488;2023-05-10T14:41:39;5.18;;;2.92;;
74935;SDS011;63501;55.570;37.488;2023-05-10T14:44:08;5.15;;;1.50;;
74935;SDS011;63501;55.570;37.488;2023-05-10T14:46:35;4.15;;;1.73;;
74935;SDS011;63501;55.570;37.488;2023-05-10T14:49:02;4.95;;;1.80;;
74935;SDS011;63501;55.570;37.488;2023-05-10T14:51:30;3.47;;;1.60;;
74935;SDS011;63501;55.570;37.488;2023-05-10T14:53:57;4.82;;;1.90;;
74935;SDS011;63501;55.570;37.488;2023-05-10T14:56:25;4.30;;;1.60;;
74935;SDS011;63501;55.570;37.488;2023-05-10T14:58:53;3.25;;;1.50;;
74935;SDS011;63501;55.570;37.488;2023-05-10T15:01:20;5.38;;;1.75;;
74935;SDS011;63501;55.570;37.488;2023-05-10T15:03:47;3.53;;;1.40;;
74935;SDS011;63501;55.570;37.488;2023-05-10T15:06:14;2.05;;;1.45;;
74935;SDS011;63501;55.570;37.488;2023-05-10T15:08:43;2.72;;;1.30;;
74935;SDS011;63501;55.570;37.488;2023-05-10T15:11:10;4.72;;;1.70;;
74935;SDS011;63501;55.570;37.488;2023-05-10T15:13:37;5.30;;;1.95;;
74935;SDS011;63501;55.570;37.488;2023-05-10T15:16:05;4.32;;;1.60;;
74935;SDS011;63501;55.570;37.488;2023-05-10T15:18:32;2.72;;;1.40;;
74935;SDS011;63501;55.570;37.488;2023-05-10T15:20:59;3.40;;;1.60;;
74935;SDS011;63501;55.570;37.488;2023-05-10T15:23:26;3.30;;;1.80;;